Time;durP1;ratioP1;P1;durP2;ratioP2;P2;SDS_P1;SDS_P2;PMS_P1;PMS_P2;Temp;Humidity;BMP_temperature;BMP_pressure;BME280_temperature;BME280_humidity;BME280_pressure;Samples;Min_cycle;Max_cycle;Signal;HPM_P1;HPM_P2
2024/03/16 00:00:43;;;;;;;9.70;2.55;;;;;;;8.59;73.63;99915.63;5039801;28;20057;-44
2024/03/16 00:03:09;;;;;;;4.82;2.03;;;;;;;8.58;73.82;99913.91;5044351;28;20045;-44
2024/03/16 00:05:37;;;;;;;6.13;2.72;;;;;;;8.58;73.47;99924.22;5037222;28;20059;-42
2024/03/16 00:08:05;;;;;;;7.38;2.28;;;;;;;8.56;73.71;99920.75;5042972;28;20056;-43
2024/03/16 00:10:31;;;;;;;7.60;2.70;;;;;;;8.53;74.11;99931.03;5037692;28;20060;-42
2024/03/16 00:12:58;;;;;;;5.13;2.45;;;;;;;8.53;73.66;99928.47;5043181;28;20048;-42
2024/03/16 00:15:26;;;;;;;10.23;3.40;;;;;;;8.52;74.46;99932.78;5048080;28;20041;-43
2024/03/16 00:17:53;;;;;;;12.40;4.25;;;;;;;8.49;74.33;99935.34;5038862;28;20076;-42
2024/03/16 00:20:20;;;;;;;12.23;4.20;;;;;;;8.47;74.51;99937.91;5039864;28;20140;-42
2024/03/16 00:22:47;;;;;;;12.43;3.78;;;;;;;8.47;74.62;99940.50;5039785;28;20056;-42
2024/03/16 00:25:14;;;;;;;7.82;3.67;;;;;;;8.46;74.47;99943.94;5042898;28;20110;-43
2024/03/16 00:27:41;;;;;;;6.18;2.40;;;;;;;8.44;74.75;99940.47;5038165;28;20056;-42
2024/03/16 00:30:10;;;;;;;5.65;1.83;;;;;;;8.33;75.21;99945.59;5039850;28;20627;-42
2024/03/16 00:32:38;;;;;;;7.55;1.45;;;;;;;8.23;76.57;99952.44;5041712;28;20055;-43
2024/03/16 00:35:05;;;;;;;5.03;2.33;;;;;;;8.28;75.87;99969.66;5045325;28;20044;-42
2024/03/16 00:37:32;;;;;;;3.22;1.35;;;;;;;8.20;75.74;99973.06;5046733;28;20063;-42
2024/03/16 00:39:59;;;;;;;3.40;2.00;;;;;;;8.16;75.47;99981.63;5045663;28;20052;-43
2024/03/16 00:42:25;;;;;;;6.15;2.03;;;;;;;8.16;75.59;99983.34;5044067;28;20053;-42
2024/03/16 00:44:52;;;;;;;6.40;2.17;;;;;;;8.11;75.60;99983.31;5046778;28;20041;-45
2024/03/16 00:47:19;;;;;;;6.50;2.92;;;;;;;8.08;75.26;99988.47;5045058;28;22593;-45
2024/03/16 00:49:45;;;;;;;7.38;3.47;;;;;;;8.07;75.59;99986.75;5041472;28;20536;-43
2024/03/16 00:52:12;;;;;;;5.32;2.83;;;;;;;8.07;75.66;100004.81;5039500;28;20036;-43
2024/03/16 00:54:39;;;;;;;11.90;3.70;;;;;;;8.07;75.21;100012.53;5044236;28;20417;-42
2024/03/16 00:57:06;;;;;;;8.25;2.83;;;;;;;8.05;75.80;100016.81;5045769;28;20059;-43
2024/03/16 00:59:32;;;;;;;9.25;3.55;;;;;;;8.04;75.79;100022.84;5043526;28;20052;-44
2024/03/16 01:01:59;;;;;;;5.63;2.80;;;;;;;8.04;75.82;100025.41;5042973;28;20049;-43
2024/03/16 01:04:27;;;;;;;9.27;4.00;;;;;;;8.04;75.19;100044.31;5043207;28;20055;-42
2024/03/16 01:06:54;;;;;;;9.75;2.35;;;;;;;8.02;75.91;100051.19;5045909;28;20132;-43
2024/03/16 01:09:22;;;;;;;9.32;3.42;;;;;;;8.02;75.86;100055.47;5046586;28;20049;-41
2024/03/16 01:11:49;;;;;;;8.82;4.28;;;;;;;8.01;75.03;100064.94;5044035;28;20390;-44
2024/03/16 01:14:17;;;;;;;6.25;2.75;;;;;;;8.00;76.03;100067.50;5041303;28;20053;-42
2024/03/16 01:16:45;;;;;;;8.57;3.40;;;;;;;8.00;74.82;100067.50;5044352;28;20048;-43
2024/03/16 01:19:13;;;;;;;7.50;2.92;;;;;;;7.98;75.04;100070.91;5047336;28;20103;-42
2024/03/16 01:21:42;;;;;;;7.00;3.10;;;;;;;7.97;75.26;100079.50;5036043;28;20045;-42
2024/03/16 01:24:09;;;;;;;10.30;2.90;;;;;;;7.97;76.01;100084.69;5046776;28;20049;-44
2024/03/16 01:26:37;;;;;;;7.00;2.70;;;;;;;7.98;75.10;100081.22;5045755;28;20549;-41
2024/03/16 01:29:10;;;;;;;10.20;3.22;;;;;;;7.98;75.42;100082.97;5046532;28;20048;-41
2024/03/16 01:31:38;;;;;;;8.38;3.00;;;;;;;7.96;76.03;100093.28;5046002;28;20080;-42
2024/03/16 01:34:05;;;;;;;7.80;3.00;;;;;;;7.97;75.55;100094.13;5046844;28;20452;-42
2024/03/16 01:36:33;;;;;;;6.57;3.40;;;;;;;7.95;75.06;100096.72;5035637;28;20056;-43
2024/03/16 01:39:00;;;;;;;7.43;2.60;;;;;;;7.94;75.43;100094.13;5040210;28;20056;-44
2024/03/16 01:41:27;;;;;;;6.03;1.77;;;;;;;7.93;74.87;100108.72;5062470;28;20040;-42
2024/03/16 01:44:10;;;;;;;4.88;2.40;;;;;;;7.89;75.15;100117.28;5058071;28;20052;-43
2024/03/16 01:46:40;;;;;;;7.93;2.60;;;;;;;7.91;75.83;100119.88;5059428;28;20102;-42
2024/03/16 01:49:09;;;;;;;11.60;2.63;;;;;;;7.90;75.31;100118.16;5022220;28;20122;-42
2024/03/16 01:51:37;;;;;;;6.43;2.08;;;;;;;7.89;75.63;100114.69;5061601;28;20048;-42
2024/03/16 01:54:06;;;;;;;5.80;1.92;;;;;;;7.91;75.64;100128.44;5046696;28;20041;-45
2024/03/16 01:56:34;;;;;;;6.57;2.38;;;;;;;7.91;75.54;100127.59;5044175;28;21756;-45
2024/03/16 01:59:02;;;;;;;5.80;1.92;;;;;;;7.91;74.94;100120.72;5044976;28;20049;-43
2024/03/16 02:01:29;;;;;;;4.85;1.13;;;;;;;7.90;75.63;100128.47;5067383;28;20770;-43
2024/03/16 02:03:57;;;;;;;3.28;1.90;;;;;;;7.89;75.23;100126.72;5066477;28;20060;-42
2024/03/16 02:06:24;;;;;;;3.88;1.40;;;;;;;7.87;75.19;100129.28;5063276;28;20147;-42
2024/03/16 02:08:52;;;;;;;6.55;1.45;;;;;;;7.88;75.24;100133.59;5063105;28;20044;-41
2024/03/16 02:11:19;;;;;;;4.20;1.73;;;;;;;7.88;75.33;100132.72;5059926;28;20060;-44
2024/03/16 02:13:46;;;;;;;8.00;1.88;;;;;;;7.88;75.18;100131.03;5065234;28;20115;-43
2024/03/16 02:16:12;;;;;;;3.75;1.70;;;;;;;7.88;74.21;100136.19;5065818;28;20079;-43
2024/03/16 02:18:39;;;;;;;3.72;1.55;;;;;;;7.88;75.23;100133.59;5073113;28;20130;-44
2024/03/16 02:21:09;;;;;;;2.90;1.25;;;;;;;7.89;74.23;100131.88;5065679;28;20044;-46
2024/03/16 02:23:36;;;;;;;4.45;1.77;;;;;;;7.88;74.05;100137.88;5048177;28;20052;-46
2024/03/16 02:26:04;;;;;;;3.03;1.42;;;;;;;7.86;74.46;100137.88;5063049;28;20048;-44
2024/03/16 02:28:31;;;;;;;3.53;1.58;;;;;;;7.86;74.08;100137.03;5064912;28;20461;-42
2024/03/16 02:30:58;;;;;;;6.70;1.63;;;;;;;7.85;73.90;100146.47;5063990;28;20067;-44
2024/03/16 02:33:27;;;;;;;3.28;1.25;;;;;;;7.85;74.71;100151.63;5061654;28;20136;-43
2024/03/16 02:35:55;;;;;;;3.58;1.50;;;;;;;7.86;74.88;100163.66;5060168;28;20048;-46
2024/03/16 02:38:22;;;;;;;5.93;1.80;;;;;;;7.86;74.59;100162.81;5058372;28;20055;-42
2024/03/16 02:40:49;;;;;;;5.35;1.35;;;;;;;7.86;74.28;100161.06;5061385;28;20044;-44
2024/03/16 02:43:16;;;;;;;2.47;1.52;;;;;;;7.86;74.90;100173.97;5064008;28;20477;-43
2024/03/16 02:45:43;;;;;;;6.75;1.60;;;;;;;7.87;74.04;100180.84;5065474;28;20782;-43
2024/03/16 02:48:11;;;;;;;2.03;1.00;;;;;;;7.86;74.01;100186.03;5053687;28;20453;-42
2024/03/16 02:50:37;;;;;;;2.95;1.17;;;;;;;7.84;73.76;100196.31;5062900;28;20123;-43
2024/03/16 02:53:04;;;;;;;5.30;1.48;;;;;;;7.81;73.60;100202.28;5063780;28;20052;-42
2024/03/16 02:55:31;;;;;;;4.32;1.38;;;;;;;7.81;73.44;100204.00;5062058;28;20056;-43
2024/03/16 02:57:57;;;;;;;3.22;1.73;;;;;;;7.80;74.15;100215.19;5064059;28;20053;-43
2024/03/16 03:00:26;;;;;;;4.35;1.42;;;;;;;7.77;74.60;100210.84;5063947;28;20059;-41
2024/03/16 03:02:54;;;;;;;2.53;1.08;;;;;;;7.77;74.29;100215.16;5063506;28;20048;-43
2024/03/16 03:05:22;;;;;;;2.80;1.20;;;;;;;7.76;74.25;100215.97;5061646;28;20045;-42
2024/03/16 03:07:49;;;;;;;4.10;1.17;;;;;;;7.75;74.58;100211.66;5056207;28;20045;-43
2024/03/16 03:10:16;;;;;;;3.53;1.27;;;;;;;7.75;74.68;100222.84;5062895;28;20044;-44
2024/03/16 03:12:44;;;;;;;3.83;1.45;;;;;;;7.74;74.29;100221.13;5054318;28;20048;-45
2024/03/16 03:15:11;;;;;;;5.97;1.45;;;;;;;7.72;74.46;100218.53;5047869;28;20068;-43
2024/03/16 03:17:38;;;;;;;4.13;0.73;;;;;;;7.72;74.44;100221.13;5058588;28;20061;-44
2024/03/16 03:20:08;;;;;;;2.63;1.10;;;;;;;7.72;74.42;100223.69;5063816;28;20083;-42
2024/03/16 03:22:36;;;;;;;2.30;1.20;;;;;;;7.71;73.93;100227.09;5065763;28;20500;-43
2024/03/16 03:25:03;;;;;;;3.92;1.25;;;;;;;7.72;74.63;100234.00;5067448;28;20052;-40
2024/03/16 03:27:30;;;;;;;3.15;1.00;;;;;;;7.70;73.34;100233.09;5068997;28;20568;-42
2024/03/16 03:29:57;;;;;;;9.02;1.38;;;;;;;7.70;73.76;100235.69;5062033;28;20048;-41
2024/03/16 03:32:23;;;;;;;3.95;1.15;;;;;;;7.70;73.41;100240.84;5059228;28;20051;-45
2024/03/16 03:34:50;;;;;;;2.63;1.20;;;;;;;7.69;73.60;100239.13;5063086;28;20051;-44
2024/03/16 03:37:17;;;;;;;2.08;0.88;;;;;;;7.67;73.65;100248.53;5065256;28;20067;-45
2024/03/16 03:39:46;;;;;;;3.20;1.25;;;;;;;7.67;73.55;100256.28;5070828;28;20099;-44
2024/03/16 03:42:14;;;;;;;5.97;1.13;;;;;;;7.63;73.93;100251.91;5065602;28;20049;-43
2024/03/16 03:44:49;;;;;;;2.42;1.13;;;;;;;7.62;73.44;100257.94;5065118;28;20106;-42
2024/03/16 03:47:17;;;;;;;4.20;1.33;;;;;;;7.58;73.42;100256.16;5067688;28;20531;-42
2024/03/16 03:49:50;;;;;;;5.22;1.35;;;;;;;7.53;74.29;100255.25;5069163;28;20045;-42
2024/03/16 03:52:17;;;;;;;2.42;0.90;;;;;;;7.46;74.38;100262.00;5067004;28;20565;-43
2024/03/16 03:54:44;;;;;;;4.78;1.23;;;;;;;7.40;73.04;100270.53;5068833;28;20140;-43
2024/03/16 03:57:11;;;;;;;3.30;1.52;;;;;;;7.33;73.06;100271.31;5068597;28;20053;-41
2024/03/16 03:59:38;;;;;;;1.70;1.05;;;;;;;7.27;74.42;100281.50;5068400;28;20053;-43
2024/03/16 04:02:04;;;;;;;5.30;1.40;;;;;;;7.18;73.54;100285.69;5065854;28;20070;-43
2024/03/16 04:04:31;;;;;;;4.70;0.82;;;;;;;7.11;74.19;100291.59;5063385;28;20076;-42
2024/03/16 04:06:58;;;;;;;2.78;1.15;;;;;;;7.03;74.35;100288.03;5066069;28;20059;-42
2024/03/16 04:09:24;;;;;;;2.60;0.90;;;;;;;6.96;73.10;100283.63;5068434;28;20048;-42
2024/03/16 04:11:51;;;;;;;4.68;1.30;;;;;;;6.88;73.14;100288.63;5067112;28;20063;-43
2024/03/16 04:14:19;;;;;;;4.25;1.38;;;;;;;6.82;73.81;100294.53;5067557;28;20040;-43
2024/03/16 04:16:47;;;;;;;6.78;1.48;;;;;;;6.75;73.12;100300.47;5068116;28;20505;-41
2024/03/16 04:19:16;;;;;;;2.75;1.20;;;;;;;6.67;73.32;100296.03;5068425;28;20040;-43
2024/03/16 04:21:43;;;;;;;3.72;1.17;;;;;;;6.63;74.80;100294.25;5067946;28;20131;-42
2024/03/16 04:24:10;;;;;;;2.70;1.20;;;;;;;6.57;74.66;100299.28;5067860;28;20071;-43
2024/03/16 04:26:37;;;;;;;3.42;1.58;;;;;;;6.52;74.93;100295.78;5067983;28;20052;-43
2024/03/16 04:29:05;;;;;;;2.28;1.27;;;;;;;6.47;73.75;100302.53;5067597;28;20041;-42
2024/03/16 04:31:32;;;;;;;3.85;2.15;;;;;;;6.41;73.89;100301.59;5067526;28;20081;-41
2024/03/16 04:33:59;;;;;;;1.95;1.60;;;;;;;6.36;73.89;100297.19;5066945;28;20497;-42
2024/03/16 04:36:26;;;;;;;3.88;1.05;;;;;;;6.32;73.15;100304.00;5067231;28;20048;-42
2024/03/16 04:38:52;;;;;;;2.97;1.10;;;;;;;6.28;74.01;100307.31;5063618;28;21751;-42
2024/03/16 04:41:19;;;;;;;8.88;1.50;;;;;;;6.23;74.98;100306.38;5060088;28;20052;-41
2024/03/16 04:43:47;;;;;;;5.75;1.10;;;;;;;6.17;73.69;100308.00;5067414;28;20071;-42
2024/03/16 04:46:14;;;;;;;2.55;1.55;;;;;;;6.13;74.98;100311.34;5056845;28;20064;-44
2024/03/16 04:48:40;;;;;;;4.22;1.25;;;;;;;6.11;74.31;100315.59;5062901;28;20049;-43
2024/03/16 04:51:07;;;;;;;4.80;1.30;;;;;;;6.07;74.83;100324.06;5065320;28;20563;-42
2024/03/16 04:53:33;;;;;;;5.20;2.17;;;;;;;6.04;74.38;100329.16;5062654;28;20118;-41
2024/03/16 04:56:00;;;;;;;3.35;1.50;;;;;;;6.01;74.57;100344.50;5071907;28;20058;-42
2024/03/16 04:58:27;;;;;;;7.20;1.75;;;;;;;5.97;74.66;100352.97;5065139;28;20055;-44
2024/03/16 05:00:53;;;;;;;3.40;1.67;;;;;;;5.92;74.88;100351.16;5069393;28;20056;-41
2024/03/16 05:03:20;;;;;;;2.63;1.92;;;;;;;5.89;74.16;100351.13;5071229;28;20040;-41
2024/03/16 05:05:50;;;;;;;4.82;1.70;;;;;;;5.86;74.14;100352.75;5073408;28;20131;-42
2024/03/16 05:08:17;;;;;;;2.45;1.45;;;;;;;5.82;75.13;100356.97;5068390;28;20488;-40
2024/03/16 05:10:49;;;;;;;4.53;1.98;;;;;;;5.78;73.60;100358.59;5062914;28;20064;-43
2024/03/16 05:13:16;;;;;;;4.15;1.45;;;;;;;5.75;75.02;100355.09;5062906;28;20511;-41
2024/03/16 05:15:43;;;;;;;5.32;1.75;;;;;;;5.71;75.14;100355.88;5064744;28;20058;-41
2024/03/16 05:18:10;;;;;;;4.68;1.73;;;;;;;5.69;74.04;100358.41;5063757;28;20052;-42
2024/03/16 05:20:36;;;;;;;4.55;1.80;;;;;;;5.66;74.58;100356.63;5060858;28;20057;-45
2024/03/16 05:23:04;;;;;;;3.92;1.63;;;;;;;5.63;74.58;100356.56;5062757;28;20575;-42
2024/03/16 05:25:31;;;;;;;2.97;1.15;;;;;;;5.60;73.75;100361.63;5059309;28;20122;-41
2024/03/16 05:27:58;;;;;;;4.90;1.83;;;;;;;5.56;74.43;100362.38;5064641;28;20044;-43
2024/03/16 05:30:25;;;;;;;3.22;1.42;;;;;;;5.53;74.78;100357.16;5064254;28;20075;-41
2024/03/16 05:32:51;;;;;;;2.28;1.38;;;;;;;5.50;74.05;100368.25;5064088;28;20107;-42
2024/03/16 05:35:18;;;;;;;6.78;2.10;;;;;;;5.46;74.28;100373.28;5060845;28;20048;-41
2024/03/16 05:37:45;;;;;;;3.33;1.23;;;;;;;5.43;75.06;100370.66;5058127;28;20110;-41
2024/03/16 05:40:11;;;;;;;6.35;1.83;;;;;;;5.39;74.59;100373.16;5066487;28;20048;-41
2024/03/16 05:42:38;;;;;;;3.60;1.30;;;;;;;5.37;75.17;100382.50;5067068;28;20048;-41
2024/03/16 05:45:06;;;;;;;5.28;1.08;;;;;;;5.35;74.30;100381.63;5056757;28;20608;-43
2024/03/16 05:47:33;;;;;;;4.60;2.22;;;;;;;5.32;74.29;100389.25;5061018;28;20080;-41
2024/03/16 05:50:00;;;;;;;3.88;1.20;;;;;;;5.30;75.13;100397.75;5064566;28;20052;-43
2024/03/16 05:52:27;;;;;;;5.70;1.98;;;;;;;5.27;74.75;100395.97;5062806;28;20049;-44
2024/03/16 05:54:54;;;;;;;5.05;2.15;;;;;;;5.25;74.55;100405.31;5060467;28;20071;-41
2024/03/16 05:57:21;;;;;;;5.28;2.13;;;;;;;5.22;74.48;100410.38;5061308;28;20412;-41
2024/03/16 05:59:48;;;;;;;4.22;1.45;;;;;;;5.19;74.28;100412.88;5057013;28;20047;-42
2024/03/16 06:02:15;;;;;;;7.65;1.35;;;;;;;5.16;74.90;100417.94;5073631;28;20043;-42
2024/03/16 06:04:41;;;;;;;2.70;1.50;;;;;;;5.12;74.51;100427.25;5065811;28;20056;-41
2024/03/16 06:07:08;;;;;;;3.90;1.35;;;;;;;5.08;74.45;100433.16;5063685;28;20452;-43
2024/03/16 06:09:35;;;;;;;4.95;1.88;;;;;;;5.06;74.66;100427.97;5067190;28;20055;-41
2024/03/16 06:12:01;;;;;;;3.35;1.77;;;;;;;5.04;74.60;100424.50;5060382;28;20469;-40
2024/03/16 06:14:28;;;;;;;4.32;1.52;;;;;;;5.04;75.44;100439.03;5062162;28;20052;-42
2024/03/16 06:16:55;;;;;;;6.03;1.58;;;;;;;5.02;74.59;100441.56;5063535;28;20060;-41
2024/03/16 06:19:23;;;;;;;4.07;1.60;;;;;;;5.01;75.15;100444.97;5064013;28;20048;-41
2024/03/16 06:21:50;;;;;;;6.00;1.58;;;;;;;5.01;75.76;100447.53;5057799;28;20146;-41
2024/03/16 06:24:17;;;;;;;5.25;1.52;;;;;;;4.99;75.16;100451.72;5061639;28;20055;-41
2024/03/16 06:26:52;;;;;;;4.85;1.65;;;;;;;5.00;75.08;100458.63;5058376;28;20552;-41
2024/03/16 06:29:25;;;;;;;6.55;1.92;;;;;;;5.00;75.76;100450.94;5065469;28;20135;-40
2024/03/16 06:31:54;;;;;;;4.82;1.80;;;;;;;5.01;75.30;100457.78;5066750;28;20102;-41
2024/03/16 06:34:20;;;;;;;3.22;1.35;;;;;;;5.01;75.21;100468.91;5066039;28;20568;-40
2024/03/16 06:36:47;;;;;;;6.50;1.58;;;;;;;5.03;75.82;100474.09;5064287;28;20506;-42
2024/03/16 06:39:21;;;;;;;4.18;1.75;;;;;;;5.04;75.17;100469.84;5063394;28;20076;-41
2024/03/16 06:41:49;;;;;;;7.78;2.25;;;;;;;5.07;76.12;100469.94;5062963;28;20106;-41
2024/03/16 06:44:17;;;;;;;6.18;1.80;;;;;;;5.09;75.88;100479.41;5062010;28;20984;-41
2024/03/16 06:46:43;;;;;;;5.78;1.17;;;;;;;5.12;75.50;100479.50;5073284;28;20068;-40
2024/03/16 06:49:10;;;;;;;5.60;1.63;;;;;;;5.16;76.18;100489.84;5062140;28;20481;-41
2024/03/16 06:51:37;;;;;;;5.20;1.38;;;;;;;5.18;75.84;100495.88;5064046;28;20060;-42
2024/03/16 06:54:04;;;;;;;4.05;1.75;;;;;;;5.21;76.17;100498.53;5057420;28;20068;-42
2024/03/16 06:56:30;;;;;;;4.13;1.83;;;;;;;5.26;76.53;100496.94;5069169;28;20109;-42
2024/03/16 06:58:57;;;;;;;7.32;2.47;;;;;;;5.28;76.32;100496.16;5066311;28;20059;-43
2024/03/16 07:01:24;;;;;;;7.32;2.05;;;;;;;5.32;76.45;100502.25;5067609;28;20044;-41
2024/03/16 07:03:51;;;;;;;7.18;2.17;;;;;;;5.36;75.97;100504.06;5067587;28;20076;-41
2024/03/16 07:06:18;;;;;;;10.15;2.60;;;;;;;5.40;76.50;100512.72;5067066;28;20040;-41
2024/03/16 07:08:45;;;;;;;3.60;1.77;;;;;;;5.40;75.38;100511.03;5069147;28;20590;-40
2024/03/16 07:11:11;;;;;;;6.13;1.70;;;;;;;5.39;75.72;100514.44;5067081;28;20051;-42
2024/03/16 07:13:38;;;;;;;4.53;2.42;;;;;;;5.39;75.39;100514.44;5063886;28;20051;-40
2024/03/16 07:16:10;;;;;;;5.60;2.95;;;;;;;5.40;76.09;100521.31;5064898;28;20443;-40
2024/03/16 07:18:37;;;;;;;10.48;3.22;;;;;;;5.44;75.12;100521.41;5059224;28;20130;-41
2024/03/16 07:21:04;;;;;;;5.57;2.50;;;;;;;5.46;74.93;100520.59;5063916;28;20911;-42
2024/03/16 07:23:30;;;;;;;5.80;2.42;;;;;;;5.52;75.27;100535.31;5066370;28;20199;-40
2024/03/16 07:25:58;;;;;;;7.97;2.38;;;;;;;5.59;75.63;100537.22;5064800;28;20048;-41
2024/03/16 07:28:25;;;;;;;5.57;2.30;;;;;;;5.66;75.49;100533.09;5058827;28;20052;-40
2024/03/16 07:30:55;;;;;;;3.22;1.98;;;;;;;5.73;75.40;100534.09;5065436;28;20106;-45
2024/03/16 07:33:22;;;;;;;6.20;1.92;;;;;;;5.77;76.14;100536.78;5064411;28;20051;-40
2024/03/16 07:35:50;;;;;;;4.05;2.13;;;;;;;5.99;76.04;100531.31;5057197;28;20048;-42
2024/03/16 07:38:17;;;;;;;4.57;1.73;;;;;;;6.86;75.47;100538.38;5061415;28;20052;-42
2024/03/16 07:40:44;;;;;;;6.13;2.20;;;;;;;7.90;75.10;100547.13;5063025;28;20056;-42
2024/03/16 07:43:11;;;;;;;4.55;2.42;;;;;;;8.69;74.42;100541.41;5061900;28;20397;-42
2024/03/16 07:45:42;;;;;;;7.43;2.35;;;;;;;9.57;72.91;100538.94;5069146;28;20055;-41
2024/03/16 07:48:09;;;;;;;9.25;2.75;;;;;;;10.51;72.18;100548.28;5065700;28;20040;-42
2024/03/16 07:50:36;;;;;;;6.28;2.05;;;;;;;11.14;69.34;100548.53;5063925;28;20492;-42
2024/03/16 07:53:03;;;;;;;5.55;3.13;;;;;;;11.56;69.13;100557.28;5047454;28;20065;-42
2024/03/16 07:55:30;;;;;;;6.10;2.13;;;;;;;11.90;67.64;100556.47;5068644;28;20052;-41
2024/03/16 07:57:57;;;;;;;4.57;1.70;;;;;;;12.13;68.05;100557.34;5067977;28;20551;-41
2024/03/16 08:00:24;;;;;;;3.92;1.80;;;;;;;12.43;67.08;100555.56;5063926;28;20056;-42
2024/03/16 08:02:50;;;;;;;3.95;1.90;;;;;;;12.89;66.50;100553.66;5063434;28;20075;-43
2024/03/16 08:05:17;;;;;;;4.28;1.70;;;;;;;13.37;66.65;100562.09;5061509;28;20048;-42
2024/03/16 08:07:44;;;;;;;4.32;1.95;;;;;;;13.87;65.87;100567.00;5057693;28;20052;-43
2024/03/16 08:10:11;;;;;;;6.72;2.28;;;;;;;14.56;65.17;100571.53;5064322;28;20044;-44
2024/03/16 08:12:37;;;;;;;4.25;1.63;;;;;;;15.36;65.12;100571.44;5065791;28;20052;-43
2024/03/16 08:15:05;;;;;;;6.22;1.67;;;;;;;16.13;63.02;100576.38;5064930;28;20562;-45
2024/03/16 08:17:32;;;;;;;6.25;2.17;;;;;;;16.89;62.00;100575.84;5064279;28;20053;-42
2024/03/16 08:19:59;;;;;;;4.55;2.33;;;;;;;17.65;60.91;100576.81;5060779;28;20099;-42
2024/03/16 08:22:26;;;;;;;4.85;2.00;;;;;;;18.34;59.25;100575.16;5057529;28;20053;-42
2024/03/16 08:24:52;;;;;;;6.93;2.15;;;;;;;18.92;58.44;100586.69;5065312;28;20052;-41
2024/03/16 08:27:19;;;;;;;7.65;2.65;;;;;;;19.44;57.50;100584.28;5061119;28;20072;-43
2024/03/16 08:29:46;;;;;;;5.28;2.15;;;;;;;20.01;56.21;100592.13;5062442;28;20063;-43
2024/03/16 08:32:14;;;;;;;5.82;2.58;;;;;;;20.51;55.52;100593.06;5063135;28;20052;-44
2024/03/16 08:34:41;;;;;;;5.63;2.50;;;;;;;21.04;53.25;100595.56;5059931;28;20049;-44
2024/03/16 08:37:08;;;;;;;5.65;2.72;;;;;;;21.55;52.72;100590.94;5063506;28;20489;-42
2024/03/16 08:39:34;;;;;;;7.95;2.22;;;;;;;21.93;51.43;100595.59;5063105;28;20588;-46
2024/03/16 08:42:01;;;;;;;3.88;2.42;;;;;;;22.24;50.73;100606.63;5063232;28;20049;-46
2024/03/16 08:44:28;;;;;;;4.55;1.90;;;;;;;22.60;49.62;100605.97;5061905;28;20040;-41
2024/03/16 08:46:55;;;;;;;6.25;1.90;;;;;;;22.86;49.22;100605.72;5066444;28;20044;-44
2024/03/16 08:49:22;;;;;;;4.40;2.05;;;;;;;23.04;47.80;100604.03;5062271;28;20049;-45
2024/03/16 08:51:49;;;;;;;5.53;1.70;;;;;;;22.99;45.80;100598.09;5060328;28;20084;-44
2024/03/16 08:54:16;;;;;;;2.78;2.10;;;;;;;22.79;45.15;100610.41;5067840;28;20040;-44
2024/03/16 08:56:42;;;;;;;2.85;1.73;;;;;;;22.67;45.27;100617.13;5065018;28;20476;-44
2024/03/16 08:59:09;;;;;;;3.08;2.22;;;;;;;22.54;45.09;100616.78;5066330;28;20048;-44
2024/03/16 09:01:36;;;;;;;3.15;1.67;;;;;;;22.47;44.04;100620.59;5064888;28;20118;-42
2024/03/16 09:04:03;;;;;;;5.78;1.60;;;;;;;22.52;44.72;100621.25;5066004;28;20603;-43
2024/03/16 09:06:29;;;;;;;3.97;1.83;;;;;;;22.70;44.59;100616.13;5047978;28;20469;-47
2024/03/16 09:08:58;;;;;;;4.30;2.22;;;;;;;22.80;43.99;100619.22;5055486;28;20048;-44
2024/03/16 09:11:25;;;;;;;6.63;2.25;;;;;;;23.02;43.67;100621.72;5045967;28;20048;-47
2024/03/16 09:13:53;;;;;;;2.63;1.60;;;;;;;22.71;43.05;100623.97;5062612;28;20045;-46
2024/03/16 09:16:19;;;;;;;4.80;1.80;;;;;;;22.12;42.01;100625.63;5063353;28;20048;-47
2024/03/16 09:18:46;;;;;;;2.47;1.33;;;;;;;21.62;41.70;100632.88;5064557;28;20045;-44
2024/03/16 09:21:13;;;;;;;2.72;1.20;;;;;;;21.47;42.92;100627.28;5063103;28;20147;-45
2024/03/16 09:23:40;;;;;;;5.45;1.50;;;;;;;21.29;42.70;100627.09;5063043;28;20040;-46
2024/03/16 09:26:07;;;;;;;2.30;1.08;;;;;;;21.10;43.22;100626.06;5063883;28;20445;-46
2024/03/16 09:28:34;;;;;;;4.60;1.33;;;;;;;;;;5060003;28;20535;-48
2024/03/16 09:31:04;;;;;;;3.63;1.73;;;;;;;20.48;43.15;100613.34;5062157;28;20040;-46
2024/03/16 09:33:32;;;;;;;4.18;1.80;;;;;;;20.38;43.25;100613.66;5060673;28;20080;-47
2024/03/16 09:35:59;;;;;;;2.67;1.20;;;;;;;19.71;43.26;100621.09;5064080;28;20048;-43
2024/03/16 09:38:25;;;;;;;3.90;1.13;;;;;;;19.13;44.48;100616.72;5064343;28;20083;-43
2024/03/16 09:40:52;;;;;;;2.15;0.85;;;;;;;19.09;45.60;100621.22;5064184;28;20048;-43
2024/03/16 09:43:19;;;;;;;4.78;0.82;;;;;;;19.56;45.55;100613.69;5057023;28;20554;-43
2024/03/16 09:45:46;;;;;;;3.22;1.25;;;;;;;19.82;45.13;100617.28;5041147;28;20053;-46
2024/03/16 09:48:13;;;;;;;6.57;1.15;;;;;;;20.01;44.57;100610.53;5047088;28;20051;-45
2024/03/16 09:50:44;;;;;;;3.42;1.50;;;;;;;19.99;44.11;100601.81;5043186;28;20045;-43
2024/03/16 09:53:25;;;;;;;2.60;1.52;;;;;;;19.92;44.08;100608.16;5014588;28;20406;-44
2024/03/16 09:55:54;;;;;;;2.45;1.67;;;;;;;19.64;44.09;100609.91;5049200;28;20044;-44
2024/03/16 09:58:21;;;;;;;3.17;1.33;;;;;;;18.71;44.87;100616.09;5046935;28;20405;-42
2024/03/16 10:00:47;;;;;;;3.25;1.38;;;;;;;17.89;46.16;100605.94;5033676;28;20048;-44
2024/03/16 10:03:15;;;;;;;3.50;1.48;;;;;;;17.27;47.12;100617.81;5046620;28;20138;-43
2024/03/16 10:05:42;;;;;;;3.42;1.70;;;;;;;17.38;48.85;100614.97;5046296;28;20036;-44
2024/03/16 10:08:07;;;;;;;2.35;1.30;;;;;;;17.20;47.99;100607.47;5043481;28;20505;-46
2024/03/16 10:10:33;;;;;;;5.13;1.00;;;;;;;17.33;48.97;100607.25;5045871;28;20107;-45
2024/03/16 10:13:08;;;;;;;3.22;1.02;;;;;;;17.87;48.58;100610.38;5048545;28;20087;-44
2024/03/16 10:15:43;;;;;;;2.53;1.35;;;;;;;18.11;47.56;100622.03;5047415;28;20490;-44
2024/03/16 10:18:10;;;;;;;3.10;1.52;;;;;;;18.05;47.08;100618.66;5045770;28;20059;-43
2024/03/16 10:20:36;;;;;;;5.00;1.35;;;;;;;17.84;46.61;100623.53;5049621;28;20056;-46
2024/03/16 10:23:03;;;;;;;2.38;1.27;;;;;;;17.69;47.72;100623.00;5041217;28;20053;-44
2024/03/16 10:25:31;;;;;;;5.82;1.52;;;;;;;17.49;47.58;100627.84;5030450;28;20045;-46
2024/03/16 10:27:56;;;;;;;2.28;1.02;;;;;;;16.86;47.90;100625.59;5034656;28;20126;-45
2024/03/16 10:30:23;;;;;;;4.50;1.88;;;;;;;16.82;48.74;100627.44;5050430;28;20575;-45
2024/03/16 10:32:49;;;;;;;3.60;1.35;;;;;;;17.06;48.57;100630.47;5052798;28;20041;-44
2024/03/16 10:35:18;;;;;;;2.70;1.35;;;;;;;16.64;49.20;100628.63;5047838;28;20052;-47
2024/03/16 10:37:45;;;;;;;2.28;1.23;;;;;;;16.28;48.99;100639.75;5030044;28;20049;-45
2024/03/16 10:40:16;;;;;;;2.50;1.42;;;;;;;15.99;49.87;100628.00;5030394;28;20110;-45
2024/03/16 10:42:47;;;;;;;3.20;1.45;;;;;;;15.77;50.53;100633.53;5063010;28;20874;-44
2024/03/16 10:45:16;;;;;;;1.98;1.08;;;;;;;15.54;50.93;100639.97;5035450;28;20044;-48
2024/03/16 10:47:45;;;;;;;3.65;1.73;;;;;;;15.33;51.46;100628.91;5033844;28;20040;-42
2024/03/16 10:50:10;;;;;;;2.88;1.40;;;;;;;15.42;51.27;100636.63;5040435;28;20578;-43
2024/03/16 10:52:41;;;;;;;1.05;0.82;;;;;;;15.22;51.50;100638.63;5044372;28;20048;-45
2024/03/16 10:55:14;;;;;;;3.00;1.33;;;;;;;14.99;50.88;100637.16;5045648;28;20686;-44
2024/03/16 10:57:41;;;;;;;3.83;1.05;;;;;;;14.72;52.40;100636.53;5047183;28;20472;-44
2024/03/16 11:00:29;;;;;;;3.08;1.33;;;;;;;14.34;51.33;100644.75;5045282;28;20052;-43
2024/03/16 11:03:00;;;;;;;4.03;0.90;;;;;;;14.24;52.01;100630.94;5017002;28;20059;-47
2024/03/16 11:05:36;;;;;;;2.38;1.40;;;;;;;13.98;52.14;100638.94;5048356;28;20056;-44
2024/03/16 11:08:21;;;;;;;2.10;1.33;;;;;;;13.74;52.41;100638.22;5048984;28;20044;-43
2024/03/16 11:10:48;;;;;;;4.70;1.33;;;;;;;13.90;52.58;100643.34;5033585;28;20048;-44
2024/03/16 11:15:54;;;;;;;2.70;1.60;;;;;;;13.75;53.45;100632.16;5094252;27;20378;-45
2024/03/16 11:20:57;;;;;;;2.25;1.00;;;;;;;13.68;53.64;100628.72;5111332;27;20337;-42
2024/03/16 11:23:28;;;;;;;4.18;1.67;;;;;;;13.78;53.81;100626.06;5097950;28;20052;-43
2024/03/16 11:25:55;;;;;;;1.50;1.33;;;;;;;13.98;54.29;100620.69;5079994;28;20055;-42
2024/03/16 11:28:22;;;;;;;2.83;1.52;;;;;;;14.26;54.72;100623.09;5031445;28;20052;-44
2024/03/16 11:30:50;;;;;;;3.00;1.33;;;;;;;14.32;54.03;100628.25;5043439;28;20041;-47
2024/03/16 11:33:18;;;;;;;2.55;1.23;;;;;;;14.09;53.10;100634.50;5016385;28;20045;-44
2024/03/16 11:35:45;;;;;;;1.90;1.17;;;;;;;14.04;53.46;100633.69;5026164;28;20053;-42
2024/03/16 11:38:12;;;;;;;2.40;1.52;;;;;;;14.05;53.31;100632.81;5053493;28;20068;-44